sensor_id;sensor_type;location;lat;lon;timestamp;P1;durP1;ratioP1;P2;durP2;ratioP2
55603;SDS011;41468;48.838;9.330;2023-05-13T00:01:07;2.60;;;2.40;;
55603;SDS011;41468;48.838;9.330;2023-05-13T00:03:34;2.47;;;2.37;;
55603;SDS011;41468;48.838;9.330;2023-05-13T00:06:28;2.83;;;2.57;;
55603;SDS011;41468;48.838;9.330;2023-05-13T00:08:55;2.20;;;2.10;;
55603;SDS011;41468;48.838;9.330;2023-05-13T00:11:22;3.87;;;2.40;;
55603;SDS011;41468;48.838;9.330;2023-05-13T00:13:54;2.50;;;2.30;;
55603;SDS011;41468;48.838;9.330;2023-05-13T00:16:26;2.10;;;2.00;;
55603;SDS011;41468;48.838;9.330;2023-05-13T00:18:59;3.67;;;2.33;;
55603;SDS011;41468;48.838;9.330;2023-05-13T00:21:31;3.13;;;2.07;;
55603;SDS011;41468;48.838;9.330;2023-05-13T00:23:59;2.80;;;2.60;;
55603;SDS011;41468;48.838;9.330;2023-05-13T00:26:26;2.40;;;2.20;;
55603;SDS011;41468;48.838;9.330;2023-05-13T00:28:53;2.43;;;2.23;;
55603;SDS011;41468;48.838;9.330;2023-05-13T00:31:20;2.20;;;2.10;;
55603;SDS011;41468;48.838;9.330;2023-05-13T00:33:47;3.13;;;2.50;;
55603;SDS011;41468;48.838;9.330;2023-05-13T00:36:13;2.40;;;2.20;;
55603;SDS011;41468;48.838;9.330;2023-05-13T00:38:47;2.27;;;2.10;;
55603;SDS011;41468;48.838;9.330;2023-05-13T00:41:13;2.20;;;2.10;;
55603;SDS011;41468;48.838;9.330;2023-05-13T00:43:40;2.63;;;2.40;;
55603;SDS011;41468;48.838;9.330;2023-05-13T00:46:07;2.40;;;2.20;;
55603;SDS011;41468;48.838;9.330;2023-05-13T00:48:34;2.33;;;2.23;;
55603;SDS011;41468;48.838;9.330;2023-05-13T00:51:01;2.17;;;2.00;;
55603;SDS011;41468;48.838;9.330;2023-05-13T00:53:28;2.20;;;2.10;;
55603;SDS011;41468;48.838;9.330;2023-05-13T00:55:57;2.30;;;2.10;;
55603;SDS011;41468;48.838;9.330;2023-05-13T00:58:24;2.00;;;1.90;;
55603;SDS011;41468;48.838;9.330;2023-05-13T01:03:28;2.63;;;2.27;;
55603;SDS011;41468;48.838;9.330;2023-05-13T01:08:46;2.20;;;2.10;;
55603;SDS011;41468;48.838;9.330;2023-05-13T01:11:23;4.03;;;2.53;;
55603;SDS011;41468;48.838;9.330;2023-05-13T01:13:57;3.13;;;2.30;;
55603;SDS011;41468;48.838;9.330;2023-05-13T01:16:30;2.10;;;2.00;;
55603;SDS011;41468;48.838;9.330;2023-05-13T01:19:15;2.50;;;2.30;;
55603;SDS011;41468;48.838;9.330;2023-05-13T01:22:03;2.10;;;2.00;;
55603;SDS011;41468;48.838;9.330;2023-05-13T01:24:31;2.30;;;2.20;;
55603;SDS011;41468;48.838;9.330;2023-05-13T01:27:07;2.33;;;1.97;;
55603;SDS011;41468;48.838;9.330;2023-05-13T01:29:34;3.73;;;2.30;;
55603;SDS011;41468;48.838;9.330;2023-05-13T01:32:01;2.43;;;1.97;;
55603;SDS011;41468;48.838;9.330;2023-05-13T01:34:28;4.10;;;1.87;;
55603;SDS011;41468;48.838;9.330;2023-05-13T01:36:57;2.17;;;2.07;;
55603;SDS011;41468;48.838;9.330;2023-05-13T01:39:25;2.77;;;2.00;;
55603;SDS011;41468;48.838;9.330;2023-05-13T01:41:53;2.30;;;2.10;;
55603;SDS011;41468;48.838;9.330;2023-05-13T01:54:57;2.00;;;1.90;;
55603;SDS011;41468;48.838;9.330;2023-05-13T01:57:24;2.03;;;1.90;;
55603;SDS011;41468;48.838;9.330;2023-05-13T01:59:50;2.43;;;2.33;;
55603;SDS011;41468;48.838;9.330;2023-05-13T02:02:18;2.60;;;2.10;;
55603;SDS011;41468;48.838;9.330;2023-05-13T02:04:45;2.33;;;2.03;;
55603;SDS011;41468;48.838;9.330;2023-05-13T02:07:11;6.67;;;2.20;;
55603;SDS011;41468;48.838;9.330;2023-05-13T02:09:38;2.20;;;2.10;;
55603;SDS011;41468;48.838;9.330;2023-05-13T02:12:05;2.17;;;2.07;;
55603;SDS011;41468;48.838;9.330;2023-05-13T02:14:32;3.83;;;2.07;;
55603;SDS011;41468;48.838;9.330;2023-05-13T02:16:59;2.40;;;1.90;;
55603;SDS011;41468;48.838;9.330;2023-05-13T02:19:25;2.10;;;2.00;;
55603;SDS011;41468;48.838;9.330;2023-05-13T02:21:52;2.20;;;2.10;;
55603;SDS011;41468;48.838;9.330;2023-05-13T02:24:19;2.10;;;1.90;;
55603;SDS011;41468;48.838;9.330;2023-05-13T02:26:46;1.87;;;1.77;;
55603;SDS011;41468;48.838;9.330;2023-05-13T02:29:13;1.70;;;1.60;;
55603;SDS011;41468;48.838;9.330;2023-05-13T02:31:40;2.03;;;1.93;;
55603;SDS011;41468;48.838;9.330;2023-05-13T02:34:08;2.30;;;2.20;;
55603;SDS011;41468;48.838;9.330;2023-05-13T02:36:35;2.20;;;2.10;;
55603;SDS011;41468;48.838;9.330;2023-05-13T02:39:01;2.40;;;2.17;;
55603;SDS011;41468;48.838;9.330;2023-05-13T02:41:28;4.27;;;2.00;;
55603;SDS011;41468;48.838;9.330;2023-05-13T02:43:55;6.70;;;2.20;;
55603;SDS011;41468;48.838;9.330;2023-05-13T02:46:22;1.97;;;1.87;;
55603;SDS011;41468;48.838;9.330;2023-05-13T02:48:48;2.00;;;1.90;;
55603;SDS011;41468;48.838;9.330;2023-05-13T02:51:15;3.40;;;2.00;;
55603;SDS011;41468;48.838;9.330;2023-05-13T02:53:42;2.20;;;2.00;;
55603;SDS011;41468;48.838;9.330;2023-05-13T02:56:13;2.50;;;2.40;;
55603;SDS011;41468;48.838;9.330;2023-05-13T02:58:41;2.00;;;1.90;;
55603;SDS011;41468;48.838;9.330;2023-05-13T03:01:08;2.10;;;2.00;;
55603;SDS011;41468;48.838;9.330;2023-05-13T03:03:35;2.30;;;1.90;;
55603;SDS011;41468;48.838;9.330;2023-05-13T03:06:01;2.40;;;2.10;;
55603;SDS011;41468;48.838;9.330;2023-05-13T03:08:28;3.17;;;2.43;;
55603;SDS011;41468;48.838;9.330;2023-05-13T03:10:56;2.40;;;2.30;;
55603;SDS011;41468;48.838;9.330;2023-05-13T03:13:28;2.17;;;1.97;;
55603;SDS011;41468;48.838;9.330;2023-05-13T03:15:54;2.40;;;2.20;;
55603;SDS011;41468;48.838;9.330;2023-05-13T03:18:33;2.10;;;2.00;;
55603;SDS011;41468;48.838;9.330;2023-05-13T03:21:00;2.30;;;2.10;;
55603;SDS011;41468;48.838;9.330;2023-05-13T03:23:27;2.50;;;2.30;;
55603;SDS011;41468;48.838;9.330;2023-05-13T03:25:54;2.30;;;2.20;;
55603;SDS011;41468;48.838;9.330;2023-05-13T03:28:20;2.00;;;1.90;;
55603;SDS011;41468;48.838;9.330;2023-05-13T03:30:47;3.23;;;2.47;;
55603;SDS011;41468;48.838;9.330;2023-05-13T03:33:14;2.47;;;2.37;;
55603;SDS011;41468;48.838;9.330;2023-05-13T03:35:41;2.67;;;2.47;;
55603;SDS011;41468;48.838;9.330;2023-05-13T03:38:07;3.40;;;2.40;;
55603;SDS011;41468;48.838;9.330;2023-05-13T03:40:34;2.70;;;2.60;;
55603;SDS011;41468;48.838;9.330;2023-05-13T03:43:01;2.80;;;2.60;;
55603;SDS011;41468;48.838;9.330;2023-05-13T03:45:27;2.20;;;2.10;;
55603;SDS011;41468;48.838;9.330;2023-05-13T03:47:54;3.07;;;2.43;;
55603;SDS011;41468;48.838;9.330;2023-05-13T03:50:21;3.03;;;2.03;;
55603;SDS011;41468;48.838;9.330;2023-05-13T03:52:48;3.20;;;2.47;;
55603;SDS011;41468;48.838;9.330;2023-05-13T03:55:15;3.27;;;2.40;;
55603;SDS011;41468;48.838;9.330;2023-05-13T03:57:43;3.00;;;2.10;;
55603;SDS011;41468;48.838;9.330;2023-05-13T04:00:12;8.00;;;2.13;;
55603;SDS011;41468;48.838;9.330;2023-05-13T04:02:40;2.40;;;2.20;;
55603;SDS011;41468;48.838;9.330;2023-05-13T04:05:07;2.10;;;2.00;;
55603;SDS011;41468;48.838;9.330;2023-05-13T04:07:34;2.70;;;2.30;;
55603;SDS011;41468;48.838;9.330;2023-05-13T04:10:01;2.60;;;2.40;;
55603;SDS011;41468;48.838;9.330;2023-05-13T04:12:28;2.10;;;2.00;;
55603;SDS011;41468;48.838;9.330;2023-05-13T04:14:56;2.30;;;2.20;;
55603;SDS011;41468;48.838;9.330;2023-05-13T04:17:23;3.00;;;2.33;;
55603;SDS011;41468;48.838;9.330;2023-05-13T04:19:53;2.53;;;2.33;;
55603;SDS011;41468;48.838;9.330;2023-05-13T04:22:20;2.30;;;2.10;;
55603;SDS011;41468;48.838;9.330;2023-05-13T04:24:47;3.17;;;2.60;;
55603;SDS011;41468;48.838;9.330;2023-05-13T04:27:17;3.10;;;2.27;;
55603;SDS011;41468;48.838;9.330;2023-05-13T04:29:44;3.37;;;2.50;;
55603;SDS011;41468;48.838;9.330;2023-05-13T04:32:10;2.70;;;2.50;;
55603;SDS011;41468;48.838;9.330;2023-05-13T04:34:41;2.40;;;2.30;;
55603;SDS011;41468;48.838;9.330;2023-05-13T04:37:08;2.37;;;2.20;;
55603;SDS011;41468;48.838;9.330;2023-05-13T04:39:34;2.47;;;2.30;;
55603;SDS011;41468;48.838;9.330;2023-05-13T04:42:01;2.70;;;2.50;;
55603;SDS011;41468;48.838;9.330;2023-05-13T04:44:28;2.63;;;2.53;;
55603;SDS011;41468;48.838;9.330;2023-05-13T04:46:54;3.87;;;2.20;;
55603;SDS011;41468;48.838;9.330;2023-05-13T04:49:21;2.50;;;2.30;;
55603;SDS011;41468;48.838;9.330;2023-05-13T04:51:48;2.43;;;2.20;;
55603;SDS011;41468;48.838;9.330;2023-05-13T04:54:15;2.30;;;2.20;;
55603;SDS011;41468;48.838;9.330;2023-05-13T04:56:42;2.40;;;2.30;;
55603;SDS011;41468;48.838;9.330;2023-05-13T04:59:19;2.17;;;2.07;;
55603;SDS011;41468;48.838;9.330;2023-05-13T05:01:46;2.20;;;2.10;;
55603;SDS011;41468;48.838;9.330;2023-05-13T05:04:13;3.77;;;2.30;;
55603;SDS011;41468;48.838;9.330;2023-05-13T05:06:40;2.53;;;2.00;;
55603;SDS011;41468;48.838;9.330;2023-05-13T05:09:11;4.03;;;2.20;;
55603;SDS011;41468;48.838;9.330;2023-05-13T05:11:38;2.50;;;2.30;;
55603;SDS011;41468;48.838;9.330;2023-05-13T05:14:04;2.20;;;2.10;;
55603;SDS011;41468;48.838;9.330;2023-05-13T05:16:31;2.23;;;2.13;;
55603;SDS011;41468;48.838;9.330;2023-05-13T05:18:58;2.00;;;1.90;;
55603;SDS011;41468;48.838;9.330;2023-05-13T05:21:24;3.30;;;2.20;;
55603;SDS011;41468;48.838;9.330;2023-05-13T05:23:51;2.60;;;2.40;;
55603;SDS011;41468;48.838;9.330;2023-05-13T05:26:18;2.20;;;2.10;;
55603;SDS011;41468;48.838;9.330;2023-05-13T05:28:45;2.10;;;2.00;;
55603;SDS011;41468;48.838;9.330;2023-05-13T05:31:12;5.57;;;2.20;;
55603;SDS011;41468;48.838;9.330;2023-05-13T05:33:39;2.50;;;2.30;;
55603;SDS011;41468;48.838;9.330;2023-05-13T05:36:06;2.50;;;2.30;;
55603;SDS011;41468;48.838;9.330;2023-05-13T05:38:33;2.30;;;2.20;;
55603;SDS011;41468;48.838;9.330;2023-05-13T05:41:00;2.60;;;2.27;;
55603;SDS011;41468;48.838;9.330;2023-05-13T05:43:27;3.63;;;2.40;;
55603;SDS011;41468;48.838;9.330;2023-05-13T05:45:54;2.90;;;2.70;;
55603;SDS011;41468;48.838;9.330;2023-05-13T05:48:20;2.30;;;2.10;;
55603;SDS011;41468;48.838;9.330;2023-05-13T05:50:47;2.40;;;2.20;;
55603;SDS011;41468;48.838;9.330;2023-05-13T05:53:26;2.50;;;2.40;;
55603;SDS011;41468;48.838;9.330;2023-05-13T05:55:53;2.37;;;2.20;;
55603;SDS011;41468;48.838;9.330;2023-05-13T05:58:19;2.50;;;2.40;;
55603;SDS011;41468;48.838;9.330;2023-05-13T06:00:46;3.63;;;2.63;;
55603;SDS011;41468;48.838;9.330;2023-05-13T06:03:13;2.50;;;2.30;;
55603;SDS011;41468;48.838;9.330;2023-05-13T06:05:40;3.40;;;2.10;;
55603;SDS011;41468;48.838;9.330;2023-05-13T06:08:07;3.23;;;2.70;;
55603;SDS011;41468;48.838;9.330;2023-05-13T06:10:34;4.13;;;2.43;;
55603;SDS011;41468;48.838;9.330;2023-05-13T06:13:01;3.13;;;2.83;;
55603;SDS011;41468;48.838;9.330;2023-05-13T06:15:27;2.50;;;2.30;;
55603;SDS011;41468;48.838;9.330;2023-05-13T06:18:00;2.50;;;2.30;;
55603;SDS011;41468;48.838;9.330;2023-05-13T06:20:31;2.50;;;2.40;;
55603;SDS011;41468;48.838;9.330;2023-05-13T06:22:58;3.07;;;2.60;;
55603;SDS011;41468;48.838;9.330;2023-05-13T06:25:24;2.80;;;2.43;;
55603;SDS011;41468;48.838;9.330;2023-05-13T06:27:51;3.13;;;2.77;;
55603;SDS011;41468;48.838;9.330;2023-05-13T06:30:18;5.40;;;2.50;;
55603;SDS011;41468;48.838;9.330;2023-05-13T06:32:45;2.53;;;2.43;;
55603;SDS011;41468;48.838;9.330;2023-05-13T06:35:27;3.10;;;2.70;;
55603;SDS011;41468;48.838;9.330;2023-05-13T06:37:54;5.40;;;2.57;;
55603;SDS011;41468;48.838;9.330;2023-05-13T06:40:25;2.40;;;2.30;;
55603;SDS011;41468;48.838;9.330;2023-05-13T06:42:52;2.50;;;2.30;;
55603;SDS011;41468;48.838;9.330;2023-05-13T06:45:18;3.40;;;2.50;;
55603;SDS011;41468;48.838;9.330;2023-05-13T06:47:49;3.43;;;2.40;;
55603;SDS011;41468;48.838;9.330;2023-05-13T06:50:16;2.90;;;2.50;;
55603;SDS011;41468;48.838;9.330;2023-05-13T06:52:44;3.60;;;3.00;;
55603;SDS011;41468;48.838;9.330;2023-05-13T06:55:10;2.60;;;2.40;;
55603;SDS011;41468;48.838;9.330;2023-05-13T06:57:37;3.13;;;2.57;;
55603;SDS011;41468;48.838;9.330;2023-05-13T07:00:08;2.73;;;2.53;;
55603;SDS011;41468;48.838;9.330;2023-05-13T07:02:36;2.83;;;2.60;;
55603;SDS011;41468;48.838;9.330;2023-05-13T07:05:03;2.60;;;2.50;;
55603;SDS011;41468;48.838;9.330;2023-05-13T07:07:30;2.80;;;2.47;;
55603;SDS011;41468;48.838;9.330;2023-05-13T07:09:57;3.77;;;2.73;;
55603;SDS011;41468;48.838;9.330;2023-05-13T07:12:24;4.10;;;2.50;;
55603;SDS011;41468;48.838;9.330;2023-05-13T07:14:50;3.33;;;2.60;;
55603;SDS011;41468;48.838;9.330;2023-05-13T07:17:17;2.53;;;2.40;;
55603;SDS011;41468;48.838;9.330;2023-05-13T07:19:44;2.93;;;2.60;;
55603;SDS011;41468;48.838;9.330;2023-05-13T07:22:11;2.43;;;2.33;;
55603;SDS011;41468;48.838;9.330;2023-05-13T07:24:42;3.63;;;2.70;;
55603;SDS011;41468;48.838;9.330;2023-05-13T07:27:09;5.47;;;2.70;;
55603;SDS011;41468;48.838;9.330;2023-05-13T07:29:42;2.67;;;2.30;;
55603;SDS011;41468;48.838;9.330;2023-05-13T07:32:09;3.83;;;2.60;;
55603;SDS011;41468;48.838;9.330;2023-05-13T07:34:36;2.77;;;2.57;;
55603;SDS011;41468;48.838;9.330;2023-05-13T07:37:03;3.90;;;2.40;;
55603;SDS011;41468;48.838;9.330;2023-05-13T07:39:30;3.10;;;2.40;;
55603;SDS011;41468;48.838;9.330;2023-05-13T07:41:56;3.57;;;2.50;;
55603;SDS011;41468;48.838;9.330;2023-05-13T07:44:23;5.07;;;2.53;;
55603;SDS011;41468;48.838;9.330;2023-05-13T07:46:51;3.83;;;2.70;;
55603;SDS011;41468;48.838;9.330;2023-05-13T07:49:19;2.50;;;2.40;;
55603;SDS011;41468;48.838;9.330;2023-05-13T07:51:46;2.60;;;2.40;;
55603;SDS011;41468;48.838;9.330;2023-05-13T07:54:13;3.03;;;2.83;;
55603;SDS011;41468;48.838;9.330;2023-05-13T07:56:39;3.10;;;2.90;;
55603;SDS011;41468;48.838;9.330;2023-05-13T07:59:09;6.03;;;3.00;;
55603;SDS011;41468;48.838;9.330;2023-05-13T08:01:36;4.43;;;3.17;;
55603;SDS011;41468;48.838;9.330;2023-05-13T08:04:03;3.03;;;2.70;;
55603;SDS011;41468;48.838;9.330;2023-05-13T08:06:30;2.77;;;2.57;;
55603;SDS011;41468;48.838;9.330;2023-05-13T08:08:58;5.13;;;3.03;;
55603;SDS011;41468;48.838;9.330;2023-05-13T08:11:25;6.43;;;3.23;;
55603;SDS011;41468;48.838;9.330;2023-05-13T08:13:51;3.17;;;2.77;;
55603;SDS011;41468;48.838;9.330;2023-05-13T08:16:18;4.80;;;3.17;;
55603;SDS011;41468;48.838;9.330;2023-05-13T08:18:45;7.00;;;2.80;;
55603;SDS011;41468;48.838;9.330;2023-05-13T08:21:11;2.93;;;2.73;;
55603;SDS011;41468;48.838;9.330;2023-05-13T08:23:38;2.83;;;2.67;;
55603;SDS011;41468;48.838;9.330;2023-05-13T08:26:11;3.10;;;2.90;;
55603;SDS011;41468;48.838;9.330;2023-05-13T08:28:38;3.00;;;2.70;;
55603;SDS011;41468;48.838;9.330;2023-05-13T08:31:04;3.57;;;2.73;;
55603;SDS011;41468;48.838;9.330;2023-05-13T08:33:43;3.57;;;3.27;;
55603;SDS011;41468;48.838;9.330;2023-05-13T08:36:12;2.97;;;2.80;;
55603;SDS011;41468;48.838;9.330;2023-05-13T08:38:46;3.00;;;2.80;;
55603;SDS011;41468;48.838;9.330;2023-05-13T08:41:13;3.33;;;2.50;;
55603;SDS011;41468;48.838;9.330;2023-05-13T08:43:43;3.63;;;2.70;;
55603;SDS011;41468;48.838;9.330;2023-05-13T08:46:12;3.77;;;2.50;;
55603;SDS011;41468;48.838;9.330;2023-05-13T08:48:42;5.07;;;2.60;;
55603;SDS011;41468;48.838;9.330;2023-05-13T08:51:10;2.60;;;2.43;;
55603;SDS011;41468;48.838;9.330;2023-05-13T08:53:38;2.63;;;2.40;;
55603;SDS011;41468;48.838;9.330;2023-05-13T08:56:06;3.07;;;2.50;;
55603;SDS011;41468;48.838;9.330;2023-05-13T08:58:34;2.80;;;2.60;;
55603;SDS011;41468;48.838;9.330;2023-05-13T09:01:12;4.67;;;2.60;;
55603;SDS011;41468;48.838;9.330;2023-05-13T09:03:43;2.87;;;2.67;;
55603;SDS011;41468;48.838;9.330;2023-05-13T09:06:23;2.50;;;2.40;;
55603;SDS011;41468;48.838;9.330;2023-05-13T09:08:49;2.80;;;2.50;;
55603;SDS011;41468;48.838;9.330;2023-05-13T09:11:16;2.73;;;2.50;;
55603;SDS011;41468;48.838;9.330;2023-05-13T09:13:43;3.57;;;2.63;;
55603;SDS011;41468;48.838;9.330;2023-05-13T09:16:10;2.53;;;2.37;;
55603;SDS011;41468;48.838;9.330;2023-05-13T09:18:39;2.80;;;2.60;;
55603;SDS011;41468;48.838;9.330;2023-05-13T09:21:29;2.53;;;2.40;;
55603;SDS011;41468;48.838;9.330;2023-05-13T09:24:14;3.67;;;2.40;;
55603;SDS011;41468;48.838;9.330;2023-05-13T09:26:47;2.40;;;2.20;;
55603;SDS011;41468;48.838;9.330;2023-05-13T09:31:44;2.80;;;2.60;;
55603;SDS011;41468;48.838;9.330;2023-05-13T09:37:25;2.37;;;2.20;;
55603;SDS011;41468;48.838;9.330;2023-05-13T09:39:44;2.97;;;2.30;;
55603;SDS011;41468;48.838;9.330;2023-05-13T09:42:17;2.47;;;2.23;;
55603;SDS011;41468;48.838;9.330;2023-05-13T09:44:44;2.20;;;2.07;;
55603;SDS011;41468;48.838;9.330;2023-05-13T09:47:12;2.13;;;2.00;;
55603;SDS011;41468;48.838;9.330;2023-05-13T09:49:40;6.67;;;1.93;;
55603;SDS011;41468;48.838;9.330;2023-05-13T09:52:08;2.07;;;1.97;;
55603;SDS011;41468;48.838;9.330;2023-05-13T09:54:37;2.30;;;2.20;;
55603;SDS011;41468;48.838;9.330;2023-05-13T09:57:16;3.60;;;2.77;;
55603;SDS011;41468;48.838;9.330;2023-05-13T09:59:42;2.20;;;2.10;;
55603;SDS011;41468;48.838;9.330;2023-05-13T10:02:09;2.83;;;1.93;;
55603;SDS011;41468;48.838;9.330;2023-05-13T10:04:40;2.60;;;2.47;;
55603;SDS011;41468;48.838;9.330;2023-05-13T10:07:08;2.17;;;1.93;;
55603;SDS011;41468;48.838;9.330;2023-05-13T10:09:36;2.10;;;2.00;;
55603;SDS011;41468;48.838;9.330;2023-05-13T10:12:05;1.93;;;1.83;;
55603;SDS011;41468;48.838;9.330;2023-05-13T10:14:33;3.27;;;2.70;;
55603;SDS011;41468;48.838;9.330;2023-05-13T10:17:04;4.20;;;2.93;;
55603;SDS011;41468;48.838;9.330;2023-05-13T10:19:35;2.80;;;2.60;;
55603;SDS011;41468;48.838;9.330;2023-05-13T10:22:03;2.77;;;2.57;;
55603;SDS011;41468;48.838;9.330;2023-05-13T10:24:31;2.73;;;2.53;;
55603;SDS011;41468;48.838;9.330;2023-05-13T10:26:58;2.73;;;2.53;;
55603;SDS011;41468;48.838;9.330;2023-05-13T10:29:27;2.53;;;2.33;;
55603;SDS011;41468;48.838;9.330;2023-05-13T10:31:54;3.08;;;2.67;;
55603;SDS011;41468;48.838;9.330;2023-05-13T10:34:21;2.93;;;2.43;;
55603;SDS011;41468;48.838;9.330;2023-05-13T10:37:13;3.83;;;2.50;;
55603;SDS011;41468;48.838;9.330;2023-05-13T10:40:16;2.70;;;2.50;;
55603;SDS011;41468;48.838;9.330;2023-05-13T10:43:19;3.00;;;2.80;;
55603;SDS011;41468;48.838;9.330;2023-05-13T10:45:47;3.17;;;2.87;;
55603;SDS011;41468;48.838;9.330;2023-05-13T10:48:17;3.90;;;2.60;;
55603;SDS011;41468;48.838;9.330;2023-05-13T10:50:53;3.00;;;2.80;;
55603;SDS011;41468;48.838;9.330;2023-05-13T10:53:33;3.33;;;2.80;;
55603;SDS011;41468;48.838;9.330;2023-05-13T10:56:02;2.83;;;2.63;;
55603;SDS011;41468;48.838;9.330;2023-05-13T10:58:33;2.35;;;2.25;;
55603;SDS011;41468;48.838;9.330;2023-05-13T11:01:13;6.63;;;2.40;;
55603;SDS011;41468;48.838;9.330;2023-05-13T11:03:49;2.20;;;2.10;;
55603;SDS011;41468;48.838;9.330;2023-05-13T11:06:20;2.30;;;2.20;;
55603;SDS011;41468;48.838;9.330;2023-05-13T11:08:49;2.20;;;2.10;;
55603;SDS011;41468;48.838;9.330;2023-05-13T11:14:34;3.13;;;2.13;;
55603;SDS011;41468;48.838;9.330;2023-05-13T11:19:28;2.45;;;2.30;;
55603;SDS011;41468;48.838;9.330;2023-05-13T11:21:57;3.03;;;2.70;;
55603;SDS011;41468;48.838;9.330;2023-05-13T11:24:30;2.87;;;2.60;;
55603;SDS011;41468;48.838;9.330;2023-05-13T11:26:57;3.05;;;2.75;;
55603;SDS011;41468;48.838;9.330;2023-05-13T11:29:31;3.80;;;2.77;;
55603;SDS011;41468;48.838;9.330;2023-05-13T11:32:00;2.90;;;2.70;;
55603;SDS011;41468;48.838;9.330;2023-05-13T11:34:29;2.58;;;2.45;;
55603;SDS011;41468;48.838;9.330;2023-05-13T11:39:29;3.05;;;2.67;;
55603;SDS011;41468;48.838;9.330;2023-05-13T11:41:56;2.97;;;2.78;;
55603;SDS011;41468;48.838;9.330;2023-05-13T11:44:26;2.97;;;2.70;;
55603;SDS011;41468;48.838;9.330;2023-05-13T11:46:54;3.20;;;3.00;;
55603;SDS011;41468;48.838;9.330;2023-05-13T11:51:57;3.23;;;3.03;;
55603;SDS011;41468;48.838;9.330;2023-05-13T11:54:24;3.50;;;3.20;;
55603;SDS011;41468;48.838;9.330;2023-05-13T11:56:51;3.70;;;3.40;;
55603;SDS011;41468;48.838;9.330;2023-05-13T11:59:18;5.10;;;2.80;;
55603;SDS011;41468;48.838;9.330;2023-05-13T12:01:45;3.73;;;3.20;;
55603;SDS011;41468;48.838;9.330;2023-05-13T12:04:29;3.67;;;2.97;;
55603;SDS011;41468;48.838;9.330;2023-05-13T12:06:56;2.90;;;2.70;;
55603;SDS011;41468;48.838;9.330;2023-05-13T12:09:23;4.40;;;2.90;;
55603;SDS011;41468;48.838;9.330;2023-05-13T12:11:51;3.90;;;2.60;;
55603;SDS011;41468;48.838;9.330;2023-05-13T12:14:19;2.50;;;2.30;;
55603;SDS011;41468;48.838;9.330;2023-05-13T12:16:46;2.80;;;2.60;;
55603;SDS011;41468;48.838;9.330;2023-05-13T12:19:14;3.67;;;2.37;;
55603;SDS011;41468;48.838;9.330;2023-05-13T12:21:41;2.60;;;2.40;;
55603;SDS011;41468;48.838;9.330;2023-05-13T12:24:17;2.83;;;2.63;;
55603;SDS011;41468;48.838;9.330;2023-05-13T12:26:44;2.77;;;2.50;;
55603;SDS011;41468;48.838;9.330;2023-05-13T12:29:11;4.30;;;2.67;;
55603;SDS011;41468;48.838;9.330;2023-05-13T12:31:39;4.35;;;2.40;;
55603;SDS011;41468;48.838;9.330;2023-05-13T12:34:08;2.65;;;2.45;;
55603;SDS011;41468;48.838;9.330;2023-05-13T12:36:35;2.67;;;2.30;;
55603;SDS011;41468;48.838;9.330;2023-05-13T12:39:07;3.00;;;2.80;;
55603;SDS011;41468;48.838;9.330;2023-05-13T12:41:35;2.63;;;2.42;;
55603;SDS011;41468;48.838;9.330;2023-05-13T12:44:06;2.80;;;2.60;;
55603;SDS011;41468;48.838;9.330;2023-05-13T12:46:35;5.13;;;2.38;;
55603;SDS011;41468;48.838;9.330;2023-05-13T12:49:03;2.75;;;2.55;;
55603;SDS011;41468;48.838;9.330;2023-05-13T12:51:31;2.30;;;2.20;;
55603;SDS011;41468;48.838;9.330;2023-05-13T12:54:01;2.55;;;2.35;;
55603;SDS011;41468;48.838;9.330;2023-05-13T12:56:32;4.25;;;2.58;;
55603;SDS011;41468;48.838;9.330;2023-05-13T12:59:04;2.65;;;2.45;;
55603;SDS011;41468;48.838;9.330;2023-05-13T13:01:31;3.45;;;2.55;;
55603;SDS011;41468;48.838;9.330;2023-05-13T13:03:58;2.92;;;2.72;;
55603;SDS011;41468;48.838;9.330;2023-05-13T13:06:24;2.65;;;2.55;;
55603;SDS011;41468;48.838;9.330;2023-05-13T13:08:51;4.38;;;2.80;;
55603;SDS011;41468;48.838;9.330;2023-05-13T13:11:18;3.15;;;2.70;;
55603;SDS011;41468;48.838;9.330;2023-05-13T13:13:45;3.72;;;2.63;;
55603;SDS011;41468;48.838;9.330;2023-05-13T13:16:12;2.60;;;2.40;;
55603;SDS011;41468;48.838;9.330;2023-05-13T13:18:39;2.60;;;2.40;;
55603;SDS011;41468;48.838;9.330;2023-05-13T13:21:07;4.25;;;3.10;;
55603;SDS011;41468;48.838;9.330;2023-05-13T13:23:35;3.20;;;2.90;;
55603;SDS011;41468;48.838;9.330;2023-05-13T13:26:02;3.67;;;3.00;;
55603;SDS011;41468;48.838;9.330;2023-05-13T13:28:29;3.30;;;2.97;;
55603;SDS011;41468;48.838;9.330;2023-05-13T13:30:57;2.58;;;2.47;;
55603;SDS011;41468;48.838;9.330;2023-05-13T13:33:25;2.95;;;2.75;;
55603;SDS011;41468;48.838;9.330;2023-05-13T13:35:52;3.22;;;2.70;;
55603;SDS011;41468;48.838;9.330;2023-05-13T13:38:18;3.22;;;2.40;;
55603;SDS011;41468;48.838;9.330;2023-05-13T13:40:45;2.55;;;2.35;;
55603;SDS011;41468;48.838;9.330;2023-05-13T13:43:12;2.28;;;2.17;;
55603;SDS011;41468;48.838;9.330;2023-05-13T13:45:39;2.38;;;2.28;;
55603;SDS011;41468;48.838;9.330;2023-05-13T13:48:06;2.42;;;2.33;;
55603;SDS011;41468;48.838;9.330;2023-05-13T13:50:32;2.70;;;2.50;;
55603;SDS011;41468;48.838;9.330;2023-05-13T13:52:59;3.47;;;2.67;;
55603;SDS011;41468;48.838;9.330;2023-05-13T13:55:26;2.70;;;2.50;;
55603;SDS011;41468;48.838;9.330;2023-05-13T13:57:52;2.90;;;2.70;;
55603;SDS011;41468;48.838;9.330;2023-05-13T14:00:19;3.07;;;2.77;;
55603;SDS011;41468;48.838;9.330;2023-05-13T14:02:46;3.20;;;3.00;;
55603;SDS011;41468;48.838;9.330;2023-05-13T14:05:14;3.60;;;3.03;;
55603;SDS011;41468;48.838;9.330;2023-05-13T14:07:41;3.08;;;2.85;;
55603;SDS011;41468;48.838;9.330;2023-05-13T14:10:08;3.38;;;3.08;;
55603;SDS011;41468;48.838;9.330;2023-05-13T14:12:36;4.00;;;3.40;;
55603;SDS011;41468;48.838;9.330;2023-05-13T14:15:03;5.32;;;2.90;;
55603;SDS011;41468;48.838;9.330;2023-05-13T14:17:31;3.50;;;3.30;;
55603;SDS011;41468;48.838;9.330;2023-05-13T14:19:58;3.60;;;3.30;;
55603;SDS011;41468;48.838;9.330;2023-05-13T14:22:25;3.00;;;2.80;;
55603;SDS011;41468;48.838;9.330;2023-05-13T14:24:51;3.60;;;3.13;;
55603;SDS011;41468;48.838;9.330;2023-05-13T14:27:18;5.53;;;3.38;;
55603;SDS011;41468;48.838;9.330;2023-05-13T14:29:47;3.33;;;3.10;;
55603;SDS011;41468;48.838;9.330;2023-05-13T14:32:14;4.35;;;3.40;;
55603;SDS011;41468;48.838;9.330;2023-05-13T14:34:41;3.53;;;3.22;;
55603;SDS011;41468;48.838;9.330;2023-05-13T14:37:08;3.67;;;3.13;;
55603;SDS011;41468;48.838;9.330;2023-05-13T14:39:35;3.40;;;3.10;;
55603;SDS011;41468;48.838;9.330;2023-05-13T14:42:02;3.00;;;2.80;;
55603;SDS011;41468;48.838;9.330;2023-05-13T14:44:29;3.33;;;3.13;;
55603;SDS011;41468;48.838;9.330;2023-05-13T14:47:03;4.72;;;3.10;;
55603;SDS011;41468;48.838;9.330;2023-05-13T14:49:30;2.97;;;2.78;;
55603;SDS011;41468;48.838;9.330;2023-05-13T14:51:56;3.60;;;3.30;;
55603;SDS011;41468;48.838;9.330;2023-05-13T14:54:23;4.38;;;3.22;;
55603;SDS011;41468;48.838;9.330;2023-05-13T14:56:50;4.45;;;2.72;;
55603;SDS011;41468;48.838;9.330;2023-05-13T14:59:17;3.28;;;2.65;;
55603;SDS011;41468;48.838;9.330;2023-05-13T15:01:44;3.00;;;2.80;;
55603;SDS011;41468;48.838;9.330;2023-05-13T15:04:11;3.40;;;3.10;;
55603;SDS011;41468;48.838;9.330;2023-05-13T15:06:38;4.25;;;2.72;;
55603;SDS011;41468;48.838;9.330;2023-05-13T15:09:05;3.47;;;2.88;;
55603;SDS011;41468;48.838;9.330;2023-05-13T15:11:33;2.95;;;2.75;;
55603;SDS011;41468;48.838;9.330;2023-05-13T15:14:00;2.95;;;2.75;;
55603;SDS011;41468;48.838;9.330;2023-05-13T15:16:27;2.90;;;2.60;;
55603;SDS011;41468;48.838;9.330;2023-05-13T15:18:53;3.20;;;3.00;;
55603;SDS011;41468;48.838;9.330;2023-05-13T15:21:20;3.38;;;3.17;;
55603;SDS011;41468;48.838;9.330;2023-05-13T15:23:47;3.08;;;2.88;;
55603;SDS011;41468;48.838;9.330;2023-05-13T15:26:14;3.30;;;3.10;;
55603;SDS011;41468;48.838;9.330;2023-05-13T15:28:41;4.72;;;3.17;;